createdAt,value
2018-05-24T00:00:15.574Z,73.30
2018-05-24T00:02:43.107Z,73.30
2018-05-24T00:05:11.410Z,73.50
2018-05-24T00:07:38.949Z,73.40
2018-05-24T00:10:07.250Z,72.80
2018-05-24T00:12:34.792Z,72.80
2018-05-24T00:15:03.095Z,73.10
2018-05-24T00:17:30.630Z,73.10
2018-05-24T00:19:58.166Z,73.70
2018-05-24T00:22:25.688Z,74.00
2018-05-24T00:24:53.230Z,73.80
2018-05-24T00:27:21.534Z,74.30
2018-05-24T00:29:49.061Z,74.30
2018-05-24T00:32:16.599Z,74.50
2018-05-24T00:34:44.135Z,74.00
2018-05-24T00:37:11.674Z,73.90
2018-05-24T00:39:39.974Z,74.20
2018-05-24T00:42:07.510Z,74.20
2018-05-24T00:44:35.806Z,74.40
2018-05-24T00:47:03.339Z,74.40
2018-05-24T00:49:30.876Z,74.30
2018-05-24T00:51:58.420Z,74.20
2018-05-24T00:54:25.949Z,74.40
2018-05-24T00:56:54.255Z,74.40
2018-05-24T00:59:21.794Z,74.40
2018-05-24T01:01:50.086Z,74.60
2018-05-24T01:04:18.395Z,74.70
2018-05-24T01:06:45.932Z,74.70
2018-05-24T01:09:14.238Z,75.10
2018-05-24T01:11:41.780Z,75.00
2018-05-24T01:14:09.310Z,75.00
2018-05-24T01:16:36.854Z,74.80
2018-05-24T01:19:04.382Z,75.10
2018-05-24T01:21:31.923Z,75.00
2018-05-24T01:24:00.216Z,75.00
2018-05-24T01:26:27.750Z,75.10
2018-05-24T01:28:55.278Z,75.00
2018-05-24T01:31:22.821Z,75.00
2018-05-24T01:33:50.369Z,75.10
2018-05-24T01:36:17.909Z,74.60
2018-05-24T01:38:45.443Z,74.60
2018-05-24T01:41:12.980Z,74.50
2018-05-24T01:43:40.501Z,74.70
2018-05-24T01:46:08.848Z,74.60
2018-05-24T01:48:36.392Z,74.60
2018-05-24T01:51:03.931Z,74.50
2018-05-24T01:53:31.471Z,74.50
2018-05-24T01:55:59.006Z,74.50
2018-05-24T01:58:26.546Z,74.20
2018-05-24T02:00:54.084Z,74.70
2018-05-24T02:03:21.623Z,74.50
2018-05-24T02:05:49.159Z,74.50
2018-05-24T02:08:16.706Z,74.40
2018-05-24T02:10:44.258Z,74.40
2018-05-24T02:13:11.825Z,74.40
2018-05-24T02:15:39.366Z,74.50
2018-05-24T02:18:07.661Z,74.30
2018-05-24T02:20:35.199Z,74.40
2018-05-24T02:23:03.502Z,74.30
2018-05-24T02:25:31.029Z,74.30
2018-05-24T02:27:58.553Z,74.50
2018-05-24T02:30:26.157Z,74.40
2018-05-24T02:32:53.625Z,74.40
2018-05-24T02:35:21.149Z,74.60
2018-05-24T02:37:48.727Z,74.40
2018-05-24T02:40:16.257Z,74.50
2018-05-24T02:42:43.784Z,74.70
2018-05-24T02:45:12.073Z,74.90
2018-05-24T02:47:40.370Z,75.00
2018-05-24T02:50:07.901Z,75.00
2018-05-24T02:52:35.437Z,74.90
2018-05-24T02:55:02.966Z,75.10
2018-05-24T02:57:30.499Z,75.20
2018-05-24T02:59:58.847Z,74.70
2018-05-24T03:02:26.391Z,74.70
2018-05-24T03:04:53.925Z,74.60
2018-05-24T03:07:21.472Z,75.00
2018-05-24T03:09:49.769Z,74.90
2018-05-24T03:12:17.315Z,74.90
2018-05-24T03:14:44.848Z,75.20
2018-05-24T03:17:12.379Z,74.90
2018-05-24T03:19:39.918Z,74.70
2018-05-24T03:22:07.503Z,74.60
2018-05-24T03:24:35.063Z,74.50
2018-05-24T03:27:02.589Z,74.80
2018-05-24T03:29:30.168Z,74.60
2018-05-24T03:31:58.462Z,74.40
2018-05-24T03:34:26.006Z,74.40
2018-05-24T03:36:53.545Z,74.60
2018-05-24T03:39:21.069Z,74.40
2018-05-24T03:41:48.597Z,74.20
2018-05-24T03:44:16.120Z,74.20
2018-05-24T03:46:43.664Z,74.30
2018-05-24T03:49:11.199Z,74.30
2018-05-24T03:51:39.539Z,74.80
2018-05-24T03:54:07.078Z,74.70
2018-05-24T03:56:34.614Z,74.90
2018-05-24T04:02:12.772Z,75.00
2018-05-24T04:04:50.181Z,75.10
2018-05-24T04:07:17.714Z,75.10
2018-05-24T04:09:45.241Z,74.80
2018-05-24T04:12:13.538Z,74.80
2018-05-24T04:14:41.071Z,74.80
2018-05-24T04:17:09.364Z,75.00
2018-05-24T04:19:36.898Z,75.00
2018-05-24T04:22:04.434Z,74.50
2018-05-24T04:24:31.958Z,75.10
2018-05-24T04:26:59.558Z,74.80
2018-05-24T04:29:27.053Z,75.30
2018-05-24T04:31:54.587Z,75.20
2018-05-24T04:34:22.122Z,75.50
2018-05-24T04:36:49.662Z,75.10
2018-05-24T04:39:17.196Z,75.00
2018-05-24T04:41:44.725Z,75.30
2018-05-24T04:44:12.267Z,75.10
2018-05-24T04:46:39.792Z,75.00
2018-05-24T04:49:07.321Z,75.10
2018-05-24T04:51:34.915Z,75.30
2018-05-24T04:54:02.453Z,75.30
2018-05-24T04:56:29.990Z,75.10
2018-05-24T04:58:57.525Z,75.00
2018-05-24T05:01:25.062Z,75.00
2018-05-24T05:03:52.599Z,74.30
2018-05-24T05:06:20.133Z,74.20
2018-05-24T05:08:48.437Z,74.00
2018-05-24T05:11:15.961Z,74.00
2018-05-24T05:13:43.497Z,74.30
2018-05-24T05:16:11.030Z,73.70
2018-05-24T05:18:38.567Z,73.60
2018-05-24T05:21:06.871Z,73.40
2018-05-24T05:23:34.401Z,73.40
2018-05-24T05:26:02.697Z,73.00
2018-05-24T05:28:30.985Z,73.00
2018-05-24T05:30:58.521Z,72.90
2018-05-24T05:33:26.058Z,73.10
2018-05-24T05:35:53.599Z,72.60
2018-05-24T05:38:21.229Z,73.00
2018-05-24T05:40:48.689Z,73.00
2018-05-24T05:43:16.986Z,73.20
2018-05-24T05:45:44.518Z,73.20
2018-05-24T05:48:12.055Z,73.10
2018-05-24T05:50:39.591Z,73.40
2018-05-24T05:53:07.129Z,73.10
2018-05-24T05:55:35.421Z,72.00
2018-05-24T05:58:02.945Z,72.00
2018-05-24T06:00:30.469Z,72.10
2018-05-24T06:02:58.003Z,72.60
2018-05-24T06:05:26.311Z,71.30
2018-05-24T06:07:53.838Z,71.30
2018-05-24T06:10:22.152Z,69.30
2018-05-24T06:12:49.691Z,69.30
2018-05-24T06:15:18.015Z,69.40
2018-05-24T06:17:45.562Z,69.30
2018-05-24T06:20:13.117Z,70.30
2018-05-24T06:22:40.648Z,69.90
2018-05-24T06:25:08.970Z,70.50
2018-05-24T06:27:36.505Z,70.50
2018-05-24T06:30:04.830Z,69.80
2018-05-24T06:32:32.372Z,69.80
2018-05-24T06:34:59.934Z,70.00
2018-05-24T06:37:27.499Z,69.40
2018-05-24T06:39:55.037Z,69.20
2018-05-24T06:42:23.325Z,66.10
2018-05-24T06:44:51.622Z,64.60
2018-05-24T06:47:19.171Z,64.50
2018-05-24T06:49:46.711Z,64.10
2018-05-24T06:52:14.240Z,64.90
2018-05-24T06:54:41.768Z,63.30
2018-05-24T06:57:09.306Z,63.40
2018-05-24T06:59:36.851Z,63.40
2018-05-24T07:02:05.183Z,61.90
2018-05-24T07:04:32.736Z,61.90
2018-05-24T07:07:00.291Z,60.40
2018-05-24T07:09:28.617Z,62.20
2018-05-24T07:11:56.180Z,62.10
2018-05-24T07:14:23.813Z,61.40
2018-05-24T07:16:52.112Z,61.90
2018-05-24T07:19:19.665Z,61.90
2018-05-24T07:21:47.209Z,62.00
2018-05-24T07:24:15.511Z,61.60
2018-05-24T07:26:43.047Z,61.50
2018-05-24T07:29:10.625Z,60.40
2018-05-24T07:31:38.177Z,61.60
2018-05-24T07:34:06.487Z,60.10
2018-05-24T07:36:34.031Z,60.20
2018-05-24T07:39:01.606Z,60.40
2018-05-24T07:41:29.182Z,61.00
2018-05-24T07:43:56.741Z,60.60
2018-05-24T07:46:24.273Z,59.60
2018-05-24T07:48:52.579Z,60.40
2018-05-24T07:51:20.118Z,60.50
2018-05-24T07:53:48.416Z,60.50
2018-05-24T07:56:16.717Z,58.40
2018-05-24T07:58:44.267Z,58.40
2018-05-24T08:01:11.808Z,58.60
2018-05-24T08:03:40.113Z,57.20
2018-05-24T08:06:07.667Z,57.10
2018-05-24T08:08:35.228Z,57.50
2018-05-24T08:11:03.561Z,58.30
2018-05-24T08:13:31.131Z,58.30
2018-05-24T08:15:58.695Z,58.40
2018-05-24T08:18:26.283Z,57.60
2018-05-24T08:20:53.840Z,57.70
2018-05-24T08:23:21.391Z,57.20
2018-05-24T08:25:48.958Z,58.40
2018-05-24T08:28:16.514Z,59.50
2018-05-24T08:30:44.073Z,59.00
2018-05-24T08:33:11.634Z,57.10
2018-05-24T08:35:39.199Z,57.80
2018-05-24T08:38:06.742Z,56.80
2018-05-24T08:40:34.368Z,57.30
2018-05-24T08:43:01.884Z,57.90
2018-05-24T08:45:29.450Z,58.50
2018-05-24T08:47:57.046Z,56.50
2018-05-24T08:50:24.587Z,57.20
2018-05-24T08:52:52.155Z,55.50
2018-05-24T08:55:19.731Z,56.30
2018-05-24T08:57:47.288Z,55.90
2018-05-24T09:00:14.824Z,56.60
2018-05-24T09:02:42.386Z,56.80
2018-05-24T09:05:09.920Z,55.70
2018-05-24T09:07:38.231Z,56.60
2018-05-24T09:10:05.762Z,56.60
2018-05-24T09:12:34.080Z,54.10
2018-05-24T09:15:01.628Z,54.10
2018-05-24T09:17:29.201Z,55.70
2018-05-24T09:19:56.747Z,52.70
2018-05-24T09:22:24.319Z,54.00
2018-05-24T09:24:51.934Z,54.00
2018-05-24T09:27:19.470Z,53.10
2018-05-24T09:29:47.030Z,53.00
2018-05-24T09:32:14.590Z,51.50
2018-05-24T09:34:42.158Z,52.80
2018-05-24T09:37:09.739Z,52.50
2018-05-24T09:39:37.334Z,52.80
2018-05-24T09:42:04.901Z,51.90
2018-05-24T09:44:32.443Z,51.30
2018-05-24T09:46:59.993Z,52.20
2018-05-24T09:49:27.539Z,51.60
2018-05-24T09:51:55.099Z,50.70
2018-05-24T09:54:22.653Z,50.30
2018-05-24T09:56:50.191Z,50.20
2018-05-24T09:59:17.748Z,51.80
2018-05-24T10:01:45.290Z,51.10
2018-05-24T10:04:12.854Z,51.50
2018-05-24T10:06:40.395Z,49.70
2018-05-24T10:09:07.921Z,50.10
2018-05-24T10:11:36.251Z,51.50
2018-05-24T10:14:04.155Z,51.50
2018-05-24T10:16:31.726Z,49.00
2018-05-24T10:18:59.245Z,51.40
2018-05-24T10:21:26.848Z,51.10
2018-05-24T10:23:54.410Z,50.50
2018-05-24T10:26:21.969Z,50.30
2018-05-24T10:28:49.531Z,48.80
2018-05-24T10:31:17.071Z,51.50
2018-05-24T10:33:44.620Z,49.30
2018-05-24T10:36:12.158Z,49.40
2018-05-24T10:38:39.723Z,49.20
2018-05-24T10:41:07.256Z,49.60
2018-05-24T10:43:34.785Z,50.30
2018-05-24T10:46:02.349Z,48.90
2018-05-24T10:48:29.881Z,49.00
2018-05-24T10:50:57.451Z,49.60
2018-05-24T10:53:25.018Z,49.50
2018-05-24T10:55:52.552Z,48.90
2018-05-24T10:58:20.076Z,48.40
2018-05-24T11:00:47.634Z,48.50
2018-05-24T11:03:15.247Z,47.90
2018-05-24T11:05:42.762Z,49.50
2018-05-24T11:08:10.313Z,49.20
2018-05-24T11:10:37.869Z,47.30
2018-05-24T11:13:05.424Z,47.60
2018-05-24T11:15:32.964Z,47.30
2018-05-24T11:18:01.287Z,47.30
2018-05-24T11:20:28.821Z,47.30
2018-05-24T11:22:57.116Z,48.40
2018-05-24T11:25:24.665Z,48.40
2018-05-24T11:27:52.961Z,47.20
2018-05-24T11:30:20.550Z,47.20
2018-05-24T11:32:48.090Z,47.70
2018-05-24T11:35:15.641Z,48.30
2018-05-24T11:37:43.939Z,48.60
2018-05-24T11:40:11.481Z,48.60
2018-05-24T11:42:39.819Z,46.10
2018-05-24T11:45:07.390Z,46.00
2018-05-24T11:47:34.931Z,46.00
2018-05-24T11:50:02.531Z,46.90
2018-05-24T11:52:30.094Z,48.60
2018-05-24T11:54:57.671Z,47.40
2018-05-24T11:57:25.968Z,47.70
2018-05-24T11:59:54.285Z,46.80
2018-05-24T12:02:21.838Z,46.80
2018-05-24T12:04:49.405Z,46.40
2018-05-24T12:07:16.945Z,47.20
2018-05-24T12:09:45.251Z,46.70
2018-05-24T12:12:12.818Z,46.60
2018-05-24T12:14:40.426Z,47.60
2018-05-24T12:17:07.994Z,47.40
2018-05-24T12:19:35.553Z,48.90
2018-05-24T12:22:03.132Z,46.40
2018-05-24T12:24:31.443Z,47.30
2018-05-24T12:26:58.987Z,47.40
2018-05-24T12:29:27.439Z,47.80
2018-05-24T12:31:55.017Z,47.80
2018-05-24T12:34:22.558Z,45.90
2018-05-24T12:36:50.122Z,46.70
2018-05-24T12:39:17.677Z,47.60
2018-05-24T12:41:45.259Z,48.10
2018-05-24T12:44:12.858Z,47.20
2018-05-24T12:46:41.180Z,46.10
2018-05-24T12:49:08.733Z,46.10
2018-05-24T12:51:36.298Z,45.00
2018-05-24T12:54:03.866Z,45.70
2018-05-24T12:56:31.420Z,45.50
2018-05-24T12:58:58.986Z,46.30
2018-05-24T13:01:26.558Z,47.30
2018-05-24T13:03:54.113Z,48.10
2018-05-24T13:06:21.654Z,46.90
2018-05-24T13:08:49.963Z,48.60
2018-05-24T13:11:17.591Z,48.60
2018-05-24T13:13:45.053Z,49.10
2018-05-24T13:16:13.358Z,48.30
2018-05-24T13:18:40.918Z,48.30
2018-05-24T13:21:08.484Z,48.20
2018-05-24T13:23:36.024Z,49.40
2018-05-24T13:26:04.340Z,48.40
2018-05-24T13:28:31.887Z,48.40
2018-05-24T13:30:59.430Z,48.50
2018-05-24T13:33:26.993Z,49.40
2018-05-24T13:35:55.354Z,48.80
2018-05-24T13:38:22.896Z,48.80
2018-05-24T13:40:50.517Z,49.70
2018-05-24T13:43:18.844Z,49.20
2018-05-24T13:45:46.482Z,49.10
2018-05-24T13:48:14.013Z,48.90
2018-05-24T13:50:41.590Z,48.20
2018-05-24T13:53:09.895Z,47.40
2018-05-24T13:55:38.264Z,47.30
2018-05-24T13:58:05.865Z,48.30
2018-05-24T14:00:33.427Z,47.70
2018-05-24T14:03:00.976Z,48.20
2018-05-24T14:05:28.534Z,48.40
2018-05-24T14:07:56.124Z,46.90
2018-05-24T14:10:23.700Z,48.40
2018-05-24T14:12:51.244Z,46.50
2018-05-24T14:15:18.819Z,47.60
2018-05-24T14:17:46.378Z,47.60
2018-05-24T14:20:13.929Z,49.00
2018-05-24T14:22:41.502Z,48.40
2018-05-24T14:25:09.051Z,50.10
2018-05-24T14:27:36.590Z,50.90
2018-05-24T14:30:04.898Z,48.10
2018-05-24T14:32:32.465Z,48.10
2018-05-24T14:34:59.998Z,48.20
2018-05-24T14:37:28.301Z,49.10
2018-05-24T14:39:55.833Z,49.10
2018-05-24T14:42:23.381Z,48.50
2018-05-24T14:44:50.917Z,48.60
2018-05-24T14:47:18.481Z,48.80
2018-05-24T14:49:46.021Z,49.50
2018-05-24T14:52:13.573Z,49.80
2018-05-24T14:54:41.870Z,49.30
2018-05-24T14:57:09.443Z,49.20
2018-05-24T14:59:37.012Z,49.40
2018-05-24T15:02:04.616Z,49.60
2018-05-24T15:04:32.154Z,48.50
2018-05-24T15:06:59.696Z,48.80
2018-05-24T15:09:27.229Z,48.30
2018-05-24T15:11:55.545Z,47.30
2018-05-24T15:14:23.102Z,47.10
2018-05-24T15:16:50.677Z,47.50
2018-05-24T15:19:18.226Z,47.00
2018-05-24T15:21:45.780Z,48.00
2018-05-24T15:24:14.107Z,48.50
2018-05-24T15:26:41.674Z,48.50
2018-05-24T15:29:09.204Z,49.10
2018-05-24T15:31:36.789Z,48.80
2018-05-24T15:34:04.350Z,49.60
2018-05-24T15:36:31.945Z,50.40
2018-05-24T15:38:59.516Z,50.20
2018-05-24T15:41:27.082Z,50.00
2018-05-24T15:43:54.646Z,49.30
2018-05-24T15:46:22.215Z,50.00
2018-05-24T15:48:49.795Z,50.30
2018-05-24T15:51:17.346Z,50.30
2018-05-24T15:53:45.672Z,51.00
2018-05-24T15:56:13.227Z,51.00
2018-05-24T15:58:40.786Z,51.00
2018-05-24T16:01:08.356Z,51.50
2018-05-24T16:03:35.923Z,51.60
2018-05-24T16:06:03.466Z,50.90
2018-05-24T16:08:31.038Z,51.30
2018-05-24T16:10:58.595Z,50.90
2018-05-24T16:13:26.903Z,52.00
2018-05-24T16:15:54.442Z,52.00
2018-05-24T16:18:22.006Z,52.40
2018-05-24T16:20:49.542Z,52.30
2018-05-24T16:23:17.105Z,52.00
2018-05-24T16:25:44.648Z,51.50
2018-05-24T16:28:12.187Z,52.20
2018-05-24T16:30:40.059Z,52.60
2018-05-24T16:33:07.608Z,51.50
2018-05-24T16:35:35.179Z,51.40
2018-05-24T16:38:02.755Z,51.10
2018-05-24T16:40:30.285Z,51.30
2018-05-24T16:42:58.604Z,52.50
2018-05-24T16:45:26.174Z,52.50
2018-05-24T16:47:53.769Z,51.40
2018-05-24T16:50:21.319Z,52.30
2018-05-24T16:52:48.864Z,51.90
2018-05-24T16:55:16.405Z,52.20
2018-05-24T16:57:43.974Z,53.20
2018-05-24T17:00:11.523Z,52.60
2018-05-24T17:02:40.130Z,52.40
2018-05-24T17:05:07.677Z,52.90
2018-05-24T17:07:35.221Z,53.30
2018-05-24T17:10:03.530Z,52.70
2018-05-24T17:12:31.149Z,52.70
2018-05-24T17:14:58.697Z,53.50
2018-05-24T17:17:26.270Z,53.90
2018-05-24T17:19:53.835Z,53.70
2018-05-24T17:22:21.397Z,53.90
2018-05-24T17:24:48.957Z,53.90
2018-05-24T17:27:16.528Z,54.90
2018-05-24T17:29:44.093Z,55.30
2018-05-24T17:32:11.638Z,55.10
2018-05-24T17:34:39.199Z,55.60
2018-05-24T17:37:06.786Z,55.80
2018-05-24T17:39:34.335Z,55.40
2018-05-24T17:42:01.908Z,55.30
2018-05-24T17:44:29.548Z,55.70
2018-05-24T17:46:57.090Z,55.70
2018-05-24T17:49:24.629Z,56.20
2018-05-24T17:51:52.949Z,56.30
2018-05-24T17:54:20.518Z,56.30
2018-05-24T17:56:48.091Z,56.40
2018-05-24T17:59:15.629Z,56.70
2018-05-24T18:01:43.161Z,56.40
2018-05-24T18:04:10.700Z,56.90
2018-05-24T18:06:38.246Z,57.00
2018-05-24T18:09:05.793Z,57.30
2018-05-24T18:11:33.356Z,57.20
2018-05-24T18:14:00.903Z,57.60
2018-05-24T18:16:28.451Z,57.80
2018-05-24T18:18:56.752Z,58.20
2018-05-24T18:21:24.305Z,58.20
2018-05-24T18:23:52.714Z,58.60
2018-05-24T18:26:20.283Z,58.60
2018-05-24T18:28:47.849Z,58.60
2018-05-24T18:31:15.404Z,58.80
2018-05-24T18:33:42.975Z,59.10
2018-05-24T18:36:10.541Z,59.30
2018-05-24T18:38:38.190Z,59.50
2018-05-24T18:41:05.759Z,59.50
2018-05-24T18:43:33.334Z,60.70
2018-05-24T18:46:00.904Z,60.90
2018-05-24T18:48:28.451Z,61.20
2018-05-24T18:50:56.009Z,61.60
2018-05-24T18:53:23.544Z,61.90
2018-05-24T18:55:51.109Z,62.30
2018-05-24T18:58:18.657Z,62.80
2018-05-24T19:00:46.372Z,63.20
2018-05-24T19:03:13.924Z,63.60
2018-05-24T19:10:13.441Z,64.00
2018-05-24T19:12:41.077Z,64.50
2018-05-24T19:15:08.652Z,64.90
2018-05-24T19:17:36.223Z,65.20
2018-05-24T19:20:03.784Z,65.40
2018-05-24T19:22:31.337Z,65.50
2018-05-24T19:24:58.886Z,65.30
2018-05-24T19:27:26.422Z,65.60
2018-05-24T19:29:54.077Z,65.60
2018-05-24T19:32:21.621Z,65.60
2018-05-24T19:34:49.213Z,65.70
2018-05-24T19:37:16.738Z,66.20
2018-05-24T19:39:44.303Z,66.10
2018-05-24T19:42:11.899Z,66.60
2018-05-24T19:44:39.453Z,66.50
2018-05-24T19:47:07.018Z,66.90
2018-05-24T19:49:34.568Z,66.60
2018-05-24T19:52:02.097Z,66.70
2018-05-24T19:54:29.655Z,66.80
2018-05-24T19:56:57.223Z,67.40
2018-05-24T19:59:24.781Z,67.30
2018-05-24T20:01:52.346Z,67.30
2018-05-24T20:04:19.926Z,67.60
2018-05-24T20:06:47.473Z,67.60
2018-05-24T20:09:15.789Z,68.00
2018-05-24T20:11:43.313Z,68.00
2018-05-24T20:14:11.631Z,68.20
2018-05-24T20:16:39.175Z,68.30
2018-05-24T20:19:06.719Z,68.50
2018-05-24T20:21:35.146Z,68.60
2018-05-24T20:24:02.702Z,68.60
2018-05-24T20:26:30.297Z,69.10
2018-05-24T20:28:57.846Z,69.40
2018-05-24T20:31:25.405Z,69.40
2018-05-24T20:33:52.942Z,69.90
2018-05-24T20:36:20.503Z,70.20
2018-05-24T20:38:48.064Z,70.30
2018-05-24T20:41:15.608Z,70.30
2018-05-24T20:43:43.921Z,70.80
2018-05-24T20:46:11.458Z,70.70
2018-05-24T20:48:39.759Z,71.00
2018-05-24T20:51:07.305Z,71.00
2018-05-24T20:53:35.597Z,71.50
2018-05-24T20:56:03.149Z,71.50
2018-05-24T20:58:31.455Z,71.80
2018-05-24T21:00:59.001Z,71.80
2018-05-24T21:03:26.576Z,72.20
2018-05-24T21:05:54.124Z,72.40
2018-05-24T21:08:22.421Z,72.40
2018-05-24T21:10:49.960Z,72.40
2018-05-24T21:13:18.262Z,72.50
2018-05-24T21:15:45.798Z,72.50
2018-05-24T21:18:13.358Z,72.60
2018-05-24T21:20:40.928Z,72.60
2018-05-24T21:23:09.226Z,72.70
2018-05-24T21:25:37.541Z,72.90
2018-05-24T21:28:05.125Z,72.80
2018-05-24T21:30:32.660Z,72.80
2018-05-24T21:33:00.218Z,72.80
2018-05-24T21:35:27.749Z,72.80
2018-05-24T21:37:55.365Z,72.70
2018-05-24T21:40:22.878Z,73.00
2018-05-24T21:42:50.455Z,73.10
2018-05-24T21:45:18.791Z,73.70
2018-05-24T21:47:46.331Z,73.70
2018-05-24T21:50:14.199Z,73.80
2018-05-24T21:52:41.749Z,73.70
2018-05-24T21:55:09.277Z,73.60
2018-05-24T21:57:36.865Z,73.80
2018-05-24T22:00:05.192Z,74.00
2018-05-24T22:02:32.730Z,74.00
2018-05-24T22:05:00.260Z,74.20
2018-05-24T22:07:28.588Z,74.40
2018-05-24T22:09:56.121Z,74.40
2018-05-24T22:12:24.425Z,74.70
2018-05-24T22:14:51.970Z,74.70
2018-05-24T22:17:19.506Z,74.80
2018-05-24T22:19:47.067Z,75.10
2018-05-24T22:22:14.620Z,75.20
2018-05-24T22:24:42.154Z,75.20
2018-05-24T22:27:09.680Z,75.30
2018-05-24T22:29:37.979Z,75.60
2018-05-24T22:32:05.536Z,75.70
2018-05-24T22:34:33.086Z,75.70
2018-05-24T22:37:01.390Z,75.90
2018-05-24T22:39:28.923Z,76.00
2018-05-24T22:41:57.217Z,76.10
2018-05-24T22:44:25.514Z,76.30
2018-05-24T22:46:53.048Z,76.30
2018-05-24T22:49:21.355Z,76.60
2018-05-24T22:51:48.901Z,76.60
2018-05-24T22:54:17.217Z,76.90
2018-05-24T22:56:44.799Z,76.80
2018-05-24T22:59:12.318Z,77.00
2018-05-24T23:01:39.854Z,77.10
2018-05-24T23:04:07.394Z,77.00
2018-05-24T23:06:34.954Z,76.80
2018-05-24T23:09:02.524Z,77.00
2018-05-24T23:11:30.063Z,76.80
2018-05-24T23:13:57.629Z,76.70
2018-05-24T23:16:25.190Z,76.70
2018-05-24T23:18:52.755Z,77.00
2018-05-24T23:21:20.315Z,77.00
2018-05-24T23:23:47.851Z,77.10
2018-05-24T23:26:16.154Z,76.90
2018-05-24T23:28:43.705Z,76.90
2018-05-24T23:31:11.242Z,76.90
2018-05-24T23:33:38.794Z,76.50
2018-05-24T23:36:06.321Z,76.70
2018-05-24T23:38:33.871Z,77.00
2018-05-24T23:41:01.402Z,77.20
2018-05-24T23:43:28.949Z,77.20
2018-05-24T23:45:56.558Z,77.40
2018-05-24T23:48:24.116Z,77.60
2018-05-24T23:50:51.653Z,77.80
2018-05-24T23:53:19.205Z,77.70
2018-05-24T23:55:46.761Z,77.60
2018-05-24T23:58:14.309Z,77.80
